Home > Products > Valid Products > TAF

000
FTUS43 KABR 290300 AAB
TAFATY
TAF AMD
KATY 290334Z 2904/2924 34022G32KT P6SM OVC010
     FM291600 33015G24KT P6SM OVC015
     FM292000 36011KT P6SM BKN025=



000
FTUS43 KABR 290300 AAA
TAFABR
TAF AMD
KABR 290307Z 2903/2924 33024G34KT P6SM OVC010
     FM291400 33017G25KT P6SM OVC015
     FM291800 36010KT P6SM BKN025=



000
FTUS43 KABR 290100 AAA
TAFMBG
TAF AMD
KMBG 290142Z 2902/2924 33023G34KT P6SM OVC010
     FM290500 33017G26KT P6SM OVC015
     FM291200 35014KT P6SM OVC012
     FM292000 02008KT P6SM SKC=



000
FTUS43 KABR 290100 AAA
TAFPIR
TAF AMD
KPIR 290140Z 2902/2924 33024G35KT P6SM OVC010
     FM290600 33018G27KT P6SM OVC010
     FM291400 35014KT P6SM OVC015
     FM291800 03008KT P6SM SCT030=



000
FTUS43 KABR 290100 AAA
TAFATY
TAF AMD
KATY 290123Z 2901/2924 34024G35KT P6SM OVC005
      TEMPO 2901/2905 2SM BR BKN002
     FM291600 33015G24KT P6SM OVC012
     FM292000 36011KT P6SM BKN025=



000
FTUS43 KABR 282300
TAFATY
TAF
KATY 282327Z 2900/2924 34015G23KT P6SM OVC010
     FM290200 34024G35KT P6SM OVC006
     FM291600 33015G24KT P6SM OVC012
     FM292000 36011KT P6SM BKN025=



000
FTUS43 KABR 282300
TAFPIR
TAF
KPIR 282327Z 2900/2924 33026G37KT P6SM OVC010
     FM291400 35014KT P6SM OVC015
     FM291800 03008KT P6SM SCT030=



000
FTUS43 KABR 282300
TAFMBG
TAF
KMBG 282327Z 2900/2924 33025G35KT P6SM OVC010
     FM290200 33024G35KT P6SM OVC009
     FM291200 35014KT P6SM OVC012
     FM292000 02008KT P6SM SKC=



000
FTUS43 KABR 282300
TAFABR
TAF
KABR 282327Z 2900/2924 33024G34KT P6SM OVC007
     FM291400 33017G25KT P6SM OVC012
     FM291800 36010KT P6SM BKN025=



000
FTUS43 KABR 282100 AAA
TAFABR
TAF AMD
KABR 282144Z 2822/2918 VRB06KT P6SM OVC200
     FM282200 34010G20KT P6SM OVC008
     FM290000 34024G35KT P6SM OVC008=



000
FTUS43 KABR 282000 AAA
TAFMBG
TAF AMD
KMBG 282042Z 2821/2918 33025G35KT P6SM OVC200
     FM282230 33025G35KT P6SM OVC008
     FM291400 33012KT P6SM OVC008=



000
FTUS43 KABR 282000 AAA
TAFPIR
TAF AMD
KPIR 282040Z 2821/2918 33025G35KT P6SM OVC200
     FM290000 33025G35KT P6SM OVC012
     FM291400 33012KT P6SM OVC012=



000
FTUS43 KABR 281700
TAFABR
TAF
KABR 281720Z 2818/2918 VRB06KT P6SM OVC200
     FM282000 34010KT P6SM OVC200
     FM290000 34024G35KT P6SM OVC012=



000
FTUS43 KABR 281700
TAFATY
TAF
KATY 281720Z 2818/2918 16010KT P6SM OVC200
      TEMPO 2818/2822 BKN008
     FM282200 34010KT P6SM OVC200
     FM290200 33024G35KT P6SM OVC012=



000
FTUS43 KABR 281700
TAFPIR
TAF
KPIR 281720Z 2818/2918 32010KT P6SM OVC200
     FM282300 33025G35KT P6SM OVC200
     FM290400 33025G35KT P6SM OVC012
     FM291400 33012KT P6SM OVC012=



000
FTUS43 KABR 281700
TAFMBG
TAF
KMBG 281720Z 2818/2918 32010KT P6SM OVC200
     FM282200 33025G35KT P6SM OVC200
     FM290100 33025G35KT P6SM OVC012
     FM291400 33012KT P6SM OVC012=



000
FTUS43 KABR 281100
TAFPIR
TAF
KPIR 281124Z 2812/2912 VRB05KT P6SM OVC200
     FM281700 32015KT P6SM OVC050
     FM282300 33025G35KT P6SM OVC025
     FM290900 33018G25KT P6SM OVC025=



000
FTUS43 KABR 281100
TAFMBG
TAF
KMBG 281124Z 2812/2912 VRB04KT P6SM OVC200
     FM281800 33017G27KT P6SM OVC050
     FM282300 33025G35KT P6SM OVC025
     FM290900 33018G24KT P6SM OVC025=



000
FTUS43 KABR 281100
TAFABR
TAF
KABR 281124Z 2812/2912 VRB05KT P6SM OVC200
     FM282000 33017G25KT P6SM OVC050
     FM290100 34024G35KT P6SM OVC025=



000
FTUS43 KABR 281100
TAFATY
TAF
KATY 281124Z 2812/2912 16010KT P6SM OVC200
     FM290000 33018G25KT P6SM OVC050
     FM290300 33024G35KT P6SM OVC025=



000
FTUS43 KABR 281000 AAA
TAFATY
TAF AMD
KATY 281018Z 2810/2906 16010KT P6SM BKN200
     FM281200 17005KT 4SM BR SCT250
     FM281600 30006KT P6SM SCT150
     FM282200 33017G25KT P6SM SCT030
     FM290200 33024G35KT P6SM OVC015=



000
FTUS43 KABR 280900 AAA
TAFABR
TAF AMD
KABR 280939Z 2810/2906 VRB05KT P6SM BKN200
     FM282000 33017G25KT P6SM SCT030
     FM282300 33024G35KT P6SM OVC015=



000
FTUS43 KABR 280900 AAA
TAFABR
TAF AMD
KABR 280939Z 2810/2906 VRB05KT P6SM BKN200
     FM282000 33017G25KT P6SM SCT030
     FM282300 33024G35KT P6SM OVC015=



000
FTUS43 KABR 280500
TAFPIR
TAF
KPIR 280528Z 2806/2906 12006KT P6SM BKN200
     FM281400 31008KT P6SM SCT150
     FM281700 32017G27KT P6SM SCT040
     FM282100 33025G35KT P6SM BKN030=



000
FTUS43 KABR 280500
TAFABR
TAF
KABR 280528Z 2806/2906 18006KT P6SM BKN200
      TEMPO 2808/2810 3SM BR
     FM281000 17004KT 1SM BR SCT250
     FM281400 29006KT P6SM SCT150
     FM282000 33017G25KT P6SM SCT030
     FM282300 33024G35KT P6SM OVC015=



000
FTUS43 KABR 280500
TAFMBG
TAF
KMBG 280528Z 2806/2906 14006KT P6SM BKN200
     FM281400 31008KT P6SM SCT150
     FM281700 32017G27KT P6SM SCT025
     FM282100 33025G35KT P6SM OVC020=



000
FTUS43 KABR 280500
TAFATY
TAF
KATY 280528Z 2806/2906 17010KT P6SM BKN200
      TEMPO 2810/2812 3SM BR
     FM281200 17005KT 2SM BR SCT250
     FM281600 30006KT P6SM SCT150
     FM282200 33017G25KT P6SM SCT030
     FM290200 33024G35KT P6SM OVC015=



000
FTUS43 KABR 272300
TAFMBG
TAF
KMBG 272338Z 2800/2824 VRB03KT P6SM SCT250
     FM281100 33010KT P6SM SCT150
     FM281700 31020G30KT P6SM SCT030=



000
FTUS43 KABR 272300
TAFPIR
TAF
KPIR 272338Z 2800/2824 VRB03KT P6SM SCT250
     FM281200 32008KT P6SM SCT150
     FM281700 32020G30KT P6SM SCT040=



000
FTUS43 KABR 272300
TAFABR
TAF
KABR 272338Z 2800/2824 15008KT P6SM SCT250
     FM280800 16005KT 3SM BR SCT250
     FM281100 17003KT 1SM BR SCT250
     FM281500 34007KT P6SM SCT150
     FM281900 33017G25KT P6SM SCT035=



000
FTUS43 KABR 272300
TAFATY
TAF
KATY 272338Z 2800/2824 16011KT P6SM SCT250
     FM280900 16008KT 3SM BR SCT250
     FM281200 17005KT 1SM BR SCT250
     FM281700 34007KT P6SM SCT150
     FM282200 33017G25KT P6SM SCT035=



000
FTUS43 KABR 272100 AAA
TAFATY
TAF AMD
KATY 272143Z 2722/2818 16013KT P6SM FEW008 FEW250
     FM280000 16008KT P6SM FEW005
      TEMPO 2802/2806 1SM BR BKN003
     FM280600 16007KT 1SM BR OVC003=



000
FTUS43 KABR 271700
TAFATY
TAF
KATY 271739Z 2718/2818 16013KT P6SM FEW003 FEW250
     FM272300 16008KT P6SM SCT003
      TEMPO 2800/2804 1SM BR BKN003
     FM280400 16007KT 1SM BR OVC003=



000
FTUS43 KABR 271700
TAFABR
TAF
KABR 271739Z 2718/2818 17011G17KT P6SM FEW250
     FM272300 16007KT P6SM FEW250
     FM280900 16005KT 3SM BR FEW250
     FM281600 34007KT P6SM SCT250=



000
FTUS43 KABR 271700
TAFMBG
TAF
KMBG 271739Z 2718/2818 16010KT P6SM FEW250
     FM280000 VRB04KT P6SM FEW250
     FM281200 29008KT P6SM SCT250=



000
FTUS43 KABR 271700
TAFPIR
TAF
KPIR 271739Z 2718/2818 15007KT P6SM FEW250
     FM280000 VRB03KT P6SM FEW250
     FM281200 30010KT P6SM FEW250=



000
FTUS43 KABR 271300 AAA
TAFABR
TAF AMD
KABR 271351Z 2714/2812 15004KT P6SM SCT200
     FM271600 17013KT P6SM SCT200=



000
FTUS43 KABR 271300 AAA
TAFATY
TAF AMD
KATY 271318Z 2713/2812 14003KT P6SM SKC
      TEMPO 2713/2714 3SM BR SCT010
     FM271600 16013KT P6SM SCT200=



000
FTUS43 KABR 271300 AAB
TAFABR
TAF AMD
KABR 271317Z 2713/2812 15004KT P6SM SKC
      TEMPO 2713/2714 5SM BR SCT010
     FM271600 17013KT P6SM SCT200=



000
FTUS43 KABR 271200 AAA
TAFABR
TAF AMD
KABR 271208Z 2712/2812 13003KT P6SM SKC
      TEMPO 2712/2714 2SM BR SCT010
     FM271600 17013KT P6SM SCT200=



000
FTUS43 KABR 271100 CCA
TAFABR
TAF COR
KABR 271138Z 2712/2812 VRB05KT 3SM BR SCT200
      TEMPO 2712/2714 1/2SM FZFG SCT010
     FM271600 17013KT P6SM SCT200=



000
FTUS43 KABR 271100
TAFABR
TAF
KABR 271120Z 2712/2812 VRB05KT P6SM SCT200
      TEMPO 2712/2714 3SM BR
     FM271600 17013KT P6SM SCT200=



000
FTUS43 KABR 271100
TAFATY
TAF
KATY 271120Z 2712/2812 VRB05KT 3SM BR BKN001
      TEMPO 2712/2714 1/2SM FZFG
     FM271600 16013KT P6SM SCT200=



000
FTUS43 KABR 271100
TAFMBG
TAF
KMBG 271120Z 2712/2812 13009KT P6SM SCT200
     FM271800 15008KT P6SM FEW250=



000
FTUS43 KABR 271100
TAFPIR
TAF
KPIR 271120Z 2712/2812 15007KT P6SM SCT200
     FM271800 16008KT P6SM SCT200=



000
FTUS43 KABR 271100 AAB
TAFATY
TAF AMD
KATY 271106Z 2711/2806 VRB05KT 5SM BR BKN001
      TEMPO 2711/2713 1SM BR
     FM271500 16013KT P6SM SKC=



000
FTUS43 KABR 271000 AAA
TAFMBG
TAF AMD
KMBG 271032Z 2711/2806 14009KT P6SM SCT200
     FM271500 15010KT P6SM SKC=



000
FTUS43 KABR 271000 AAA
TAFPIR
TAF AMD
KPIR 271032Z 2711/2806 12005KT P6SM SCT200
     FM271500 15010KT P6SM SKC=



000
FTUS43 KABR 271000 AAA
TAFATY
TAF AMD
KATY 271031Z 2711/2806 VRB05KT P6SM SCT250
      TEMPO 2711/2713 3SM BR SCT010
     FM271500 16013KT P6SM SKC=



000
FTUS43 KABR 271000 AAA
TAFABR
TAF AMD
KABR 271030Z 2711/2806 VRB05KT P6SM SCT200
      TEMPO 2711/2713 3SM BR
     FM271500 17013KT P6SM SKC=



000
FTUS43 KABR 270500
TAFMBG
TAF
KMBG 270537Z 2706/2806 12005KT P6SM SKC
     FM270900 13005KT 5SM BR SKC
     FM271500 15010KT P6SM SKC=



000
FTUS43 KABR 270500
TAFPIR
TAF
KPIR 270537Z 2706/2806 12005KT P6SM SKC
     FM270900 13005KT 5SM BR SKC
     FM271500 15010KT P6SM SKC=



000
FTUS43 KABR 270500
TAFABR
TAF
KABR 270537Z 2706/2806 VRB03KT P6SM SKC
     FM270800 14005KT 3SM BR SKC
     FM271000 15005KT 1SM BR SKC
     FM271500 17013KT P6SM SKC=



000
FTUS43 KABR 270500
TAFATY
TAF
KATY 270537Z 2706/2806 VRB03KT P6SM SKC
     FM270800 12005KT 3SM BR SKC
     FM271000 15005KT 1SM BR SKC
     FM271500 16013KT P6SM SKC=



000
FTUS43 KABR 270200 AAA
TAFMBG
TAF AMD
KMBG 270251Z 2703/2724 VRB03KT P6SM SCT250
     FM270600 VRB03KT 3SM BR SCT250
     FM270800 12005KT 1SM BR SKC
     FM271500 18013KT P6SM SKC=



000
FTUS43 KABR 270200 AAA
TAFPIR
TAF AMD
KPIR 270250Z 2703/2724 VRB03KT P6SM SCT250
     FM270500 VRB03KT 3SM BR SCT250
     FM270700 12005KT 1SM BR SKC
     FM271500 18010KT P6SM SKC=



000
FTUS43 KABR 270200 AAA
TAFATY
TAF AMD
KATY 270248Z 2703/2724 34008KT P6SM SCT250
     FM270600 VRB03KT 5SM BR SKC
     FM270800 VRB03KT 1SM BR SKC
     FM271000 18005KT 1/2SM FZFG OVC002
     FM271600 17010KT P6SM SKC=



000
FTUS43 KABR 270200 AAA
TAFABR
TAF AMD
KABR 270247Z 2703/2724 36006KT P6SM SCT250
     FM270600 VRB03KT 5SM BR SKC
     FM270800 VRB03KT 1SM BR SKC
     FM271000 18005KT 1/2SM FZFG OVC003
     FM271600 17010KT P6SM SKC=



000
FTUS43 KABR 262300
TAFABR
TAF
KABR 262338Z 2700/2724 32008KT P6SM SCT250
     FM270400 VRB03KT 5SM BR SKC
     FM270600 VRB03KT 1SM BR SKC
     FM270800 18005KT 1/2SM FZFG OVC003
     FM271600 17010KT P6SM SKC=



000
FTUS43 KABR 262300
TAFMBG
TAF
KMBG 262338Z 2700/2724 32005KT P6SM SCT250
     FM270400 VRB03KT 3SM BR SCT250
     FM270600 12005KT 1SM BR SKC
     FM271500 18013KT P6SM SKC=



000
FTUS43 KABR 262300
TAFPIR
TAF
KPIR 262338Z 2700/2724 29005KT P6SM SCT250
     FM270400 VRB03KT 3SM BR SCT250
     FM270700 12005KT 1SM BR SKC
     FM271500 18010KT P6SM SKC=



000
FTUS43 KABR 262300
TAFATY
TAF
KATY 262338Z 2700/2724 32008KT P6SM SCT250
     FM270400 VRB03KT 5SM BR SKC
     FM270600 VRB03KT 1SM BR SKC
     FM270800 18005KT 1/2SM FZFG OVC002
     FM271600 17010KT P6SM SKC=



000
FTUS43 KABR 261700
TAFABR
TAF
KABR 261740Z 2618/2718 31013KT P6SM FEW250
     FM262300 34007KT P6SM SCT250
     FM270800 VRB03KT 3SM BR SCT005
     FM271600 17008KT P6SM FEW250=



000
FTUS43 KABR 261700
TAFPIR
TAF
KPIR 261740Z 2618/2718 31010KT P6SM SCT250
     FM262300 VRB03KT P6SM SCT250
     FM270800 VRB03KT 3SM BR SCT005
     FM271600 15006KT P6SM FEW250=



000
FTUS43 KABR 261700
TAFATY
TAF
KATY 261740Z 2618/2718 31014KT P6SM FEW250
     FM270000 34006KT P6SM SCT250
     FM270800 VRB03KT 3SM BR SCT005
     FM271600 17008KT P6SM FEW250=



000
FTUS43 KABR 261700
TAFMBG
TAF
KMBG 261740Z 2618/2718 32010KT P6SM FEW250
     FM262300 VRB03KT P6SM SCT250
     FM270800 VRB03KT 3SM BR SCT005
     FM271600 15006KT P6SM FEW250=



000
FTUS43 KABR 261100
TAFABR
TAF
KABR 261126Z 2612/2712 33011KT P6SM SCT100
     FM270000 36005KT P6SM BKN250
     FM270900 VRB03KT 3SM BR SCT005=



000
FTUS43 KABR 261100
TAFATY
TAF
KATY 261126Z 2612/2712 28005KT P6SM FEW100
     FM261500 32011KT P6SM SCT100
     FM270900 VRB03KT 3SM BR SCT005=



000
FTUS43 KABR 261100
TAFMBG
TAF
KMBG 261126Z 2612/2712 32011KT P6SM SCT100
     FM270000 03005KT P6SM SCT250=



000
FTUS43 KABR 261100
TAFPIR
TAF
KPIR 261126Z 2612/2712 26011KT P6SM SCT100
     FM270000 36003KT P6SM FEW250=



000
FTUS43 KABR 261100 AAA
TAFATY
TAF AMD
KATY 261113Z 2611/2706 28005KT P6SM FEW100
     FM270200 34007KT P6SM OVC200=



000
FTUS43 KABR 260900 AAA
TAFPIR
TAF AMD
KPIR 260931Z 2610/2706 25006KT P6SM SKC
     FM262200 VRB04KT P6SM SCT200=



000
FTUS43 KABR 260500
TAFMBG
TAF
KMBG 260526Z 2606/2706 31008KT P6SM BKN250
     FM262300 VRB03KT P6SM BKN200=



000
FTUS43 KABR 260500
TAFABR
TAF
KABR 260526Z 2606/2706 20011KT P6SM BKN100
     FM261100 31011KT P6SM BKN250
     FM270200 VRB03KT P6SM OVC080=



000
FTUS43 KABR 260500
TAFATY
TAF
KATY 260526Z 2606/2706 20010KT P6SM FEW009
     FM260800 23014KT P6SM BKN100
     FM261100 31015KT P6SM BKN250
     FM270200 34007KT P6SM OVC200=



000
FTUS43 KABR 260500
TAFPIR
TAF
KPIR 260526Z 2606/2706 VRB04KT P6SM SCT110
     FM260800 30012KT P6SM BKN250
     FM262200 VRB04KT P6SM SCT200=



000
FTUS43 KABR 260400 AAB
TAFATY
TAF AMD
KATY 260454Z 2605/2624 VRB05KT P6SM FEW020
     FM260700 23014KT P6SM BKN100
     FM261200 31013KT P6SM BKN250=



    US Dept of Commerce
    National Oceanic and Atmospheric Administration
    National Weather Service
    1325 East West Highway
    Silver Spring, MD 20910
    Page Author: NWS Internet Services Team
Disclaimer
Information Quality
Credits
Glossary
Privacy Policy
Freedom of Information Act (FOIA)
About Us
Career Opportunities